Cedar Falls, IA

1:03 AM CDT on March 31, 2015 (GMT -0500)
DDMET | | Change Station
CLOSE
Current Station
Personal Weather Station
Location: Cedar Falls, IA
Elevation: 939 ft
Nearby Weather Stations

Elev 939 ft 42.51 °N, 92.46 °W | Updated 36 minutes ago

Clear
Clear
55.0 °F
Feels Like 55.0 °F
N
-
Wind Variable Wind from North

Today
High -- | Low -- °F
--% Chance of Precip.
Yesterday
High -- | Low -- °F
Precip. -- in
6:54 AM 7:34 PM
Waxing Gibbous, 84% visible
Pressure 29.82 in
Visibility 10.0 miles
Clouds Clear
Dew Point 37.0 °F
Humidity 50%
Rainfall in
Snow Depth Not available.
UV 0 out of 12
Pollen 9.80 out of 12
Air Quality Not available.
Flu Activity Not available.
METAR KALO 310554Z 32012KT 10SM CLR 11/03 A2982 RMK AO2 SLP098 T01110028 10206 20106 402281033 51013

More Conditions Fewer Conditions

Pressure 29.82 in
Visibility 10.0 miles
Clouds Clear
Dew Point 37.0 °F
Humidity 50%
Rainfall in
Snow Depth Not available.
UV 0 out of 12
Pollen 9.80 out of 12
Air Quality Not available.
Flu Activity Not available.
METAR KALO 310554Z 32012KT 10SM CLR 11/03 A2982 RMK AO2 SLP098 T01110028 10206 20106 402281033 51013

More Conditions Fewer Conditions

10-Day Weather Forecast

Almanac

Astronomy

Mar. 31, 2015 Rise Set
Actual Time
Civil Twilight
Nautical Twilight
Astronomical Twilight
Moon
Length of Visible Light
Length of Day
Tomorrow will be .
, % of the Moon is Illuminated

Today's Extremes

State Highs State Lows

Community

WunderPhotos

Upload Photos

1,809,724 photos uploaded!

WunderBlogs® & News

Nearby

Air Quality

  Air Quality AQ Index Pollutant
Not available.

Snow Depth

Station Depth Elevation

Earthquake Activity

City Distance Mag. Time & Date
Minimum magnitude displayed is 2.5.

Coastal Water Temperatures

Place Temperature

Stations

Nearby Weather Stations

Station Location Temp. Windchill Dew Point Humidity Wind Precip. Elev Updated Type